sensor_id;sensor_type;location;lat;lon;timestamp;temperature;humidity
78455;SHT31;67751;51.986;5.696;2023-05-15T00:01:13;15.6;67.7
78455;SHT31;67751;51.986;5.696;2023-05-15T00:03:43;15.5;67.5
78455;SHT31;67751;51.986;5.696;2023-05-15T00:06:13;15.5;68.2
78455;SHT31;67751;51.986;5.696;2023-05-15T00:08:43;15.5;68.4
78455;SHT31;67751;51.986;5.696;2023-05-15T00:11:13;15.5;68.3
78455;SHT31;67751;51.986;5.696;2023-05-15T00:13:42;15.5;68.0
78455;SHT31;67751;51.986;5.696;2023-05-15T00:16:12;15.5;67.5
78455;SHT31;67751;51.986;5.696;2023-05-15T00:18:41;15.5;68.0
78455;SHT31;67751;51.986;5.696;2023-05-15T00:21:11;15.5;67.9
78455;SHT31;67751;51.986;5.696;2023-05-15T00:23:41;15.5;68.2
78455;SHT31;67751;51.986;5.696;2023-05-15T00:26:10;15.5;68.3
78455;SHT31;67751;51.986;5.696;2023-05-15T00:28:42;15.5;67.6
78455;SHT31;67751;51.986;5.696;2023-05-15T00:31:12;15.5;67.6
78455;SHT31;67751;51.986;5.696;2023-05-15T00:33:43;15.5;67.3
78455;SHT31;67751;51.986;5.696;2023-05-15T00:36:13;15.5;67.1
78455;SHT31;67751;51.986;5.696;2023-05-15T00:38:43;15.5;66.7
78455;SHT31;67751;51.986;5.696;2023-05-15T00:41:14;15.4;66.8
78455;SHT31;67751;51.986;5.696;2023-05-15T00:43:45;15.4;66.9
78455;SHT31;67751;51.986;5.696;2023-05-15T00:46:16;15.4;67.0
78455;SHT31;67751;51.986;5.696;2023-05-15T00:48:49;15.4;67.3
78455;SHT31;67751;51.986;5.696;2023-05-15T00:51:18;15.4;67.7
78455;SHT31;67751;51.986;5.696;2023-05-15T00:53:49;15.4;67.6
78455;SHT31;67751;51.986;5.696;2023-05-15T00:56:19;15.4;67.5
78455;SHT31;67751;51.986;5.696;2023-05-15T00:58:51;15.4;67.3
78455;SHT31;67751;51.986;5.696;2023-05-15T01:01:22;15.3;67.2
78455;SHT31;67751;51.986;5.696;2023-05-15T01:03:52;15.3;67.6
78455;SHT31;67751;51.986;5.696;2023-05-15T01:06:22;15.3;67.3
78455;SHT31;67751;51.986;5.696;2023-05-15T01:08:53;15.3;67.3
78455;SHT31;67751;51.986;5.696;2023-05-15T01:11:27;15.2;67.7
78455;SHT31;67751;51.986;5.696;2023-05-15T01:14:04;15.2;67.9
78455;SHT31;67751;51.986;5.696;2023-05-15T01:16:35;15.2;67.7
78455;SHT31;67751;51.986;5.696;2023-05-15T01:19:05;15.2;67.8
78455;SHT31;67751;51.986;5.696;2023-05-15T01:23:53;15.2;67.9
78455;SHT31;67751;51.986;5.696;2023-05-15T01:27:04;15.1;68.2
78455;SHT31;67751;51.986;5.696;2023-05-15T01:29:38;15.1;68.2
78455;SHT31;67751;51.986;5.696;2023-05-15T01:32:13;15.1;68.5
78455;SHT31;67751;51.986;5.696;2023-05-15T01:34:56;15.1;68.5
78455;SHT31;67751;51.986;5.696;2023-05-15T01:37:31;15.1;68.3
78455;SHT31;67751;51.986;5.696;2023-05-15T01:40:06;15.1;68.3
78455;SHT31;67751;51.986;5.696;2023-05-15T01:42:50;15.1;68.2
78455;SHT31;67751;51.986;5.696;2023-05-15T01:45:22;15.1;67.6
78455;SHT31;67751;51.986;5.696;2023-05-15T01:47:53;15.1;67.6
78455;SHT31;67751;51.986;5.696;2023-05-15T01:50:26;15.0;67.7
78455;SHT31;67751;51.986;5.696;2023-05-15T01:52:57;15.0;67.9
78455;SHT31;67751;51.986;5.696;2023-05-15T01:55:29;15.0;67.8
78455;SHT31;67751;51.986;5.696;2023-05-15T01:58:00;15.0;68.2
78455;SHT31;67751;51.986;5.696;2023-05-15T02:00:31;14.9;68.3
78455;SHT31;67751;51.986;5.696;2023-05-15T02:03:04;14.9;68.4
78455;SHT31;67751;51.986;5.696;2023-05-15T02:05:38;14.9;68.4
78455;SHT31;67751;51.986;5.696;2023-05-15T02:08:12;14.9;68.4
78455;SHT31;67751;51.986;5.696;2023-05-15T02:10:43;14.9;68.2
78455;SHT31;67751;51.986;5.696;2023-05-15T02:13:14;14.9;67.9
78455;SHT31;67751;51.986;5.696;2023-05-15T02:15:46;14.9;67.7
78455;SHT31;67751;51.986;5.696;2023-05-15T02:18:15;14.9;68.1
78455;SHT31;67751;51.986;5.696;2023-05-15T02:20:45;14.8;67.9
78455;SHT31;67751;51.986;5.696;2023-05-15T02:23:15;14.8;68.1
78455;SHT31;67751;51.986;5.696;2023-05-15T02:25:55;14.8;68.1
78455;SHT31;67751;51.986;5.696;2023-05-15T02:28:29;14.8;67.9
78455;SHT31;67751;51.986;5.696;2023-05-15T02:31:08;14.7;68.2
78455;SHT31;67751;51.986;5.696;2023-05-15T02:33:48;14.7;68.2
78455;SHT31;67751;51.986;5.696;2023-05-15T02:36:24;14.7;67.8
78455;SHT31;67751;51.986;5.696;2023-05-15T02:38:58;14.7;67.8
78455;SHT31;67751;51.986;5.696;2023-05-15T02:41:33;14.6;68.4
78455;SHT31;67751;51.986;5.696;2023-05-15T02:44:06;14.6;68.5
78455;SHT31;67751;51.986;5.696;2023-05-15T02:46:37;14.6;68.4
78455;SHT31;67751;51.986;5.696;2023-05-15T02:49:09;14.6;69.2
78455;SHT31;67751;51.986;5.696;2023-05-15T02:51:39;14.6;69.7
78455;SHT31;67751;51.986;5.696;2023-05-15T02:54:09;14.5;70.2
78455;SHT31;67751;51.986;5.696;2023-05-15T02:56:39;14.5;70.4
78455;SHT31;67751;51.986;5.696;2023-05-15T02:59:09;14.5;70.4
78455;SHT31;67751;51.986;5.696;2023-05-15T03:01:41;14.5;71.1
78455;SHT31;67751;51.986;5.696;2023-05-15T03:04:12;14.4;71.5
78455;SHT31;67751;51.986;5.696;2023-05-15T03:06:41;14.4;71.7
78455;SHT31;67751;51.986;5.696;2023-05-15T03:09:11;14.4;71.5
78455;SHT31;67751;51.986;5.696;2023-05-15T03:11:41;14.4;71.8
78455;SHT31;67751;51.986;5.696;2023-05-15T03:14:10;14.4;72.3
78455;SHT31;67751;51.986;5.696;2023-05-15T03:16:40;14.4;72.5
78455;SHT31;67751;51.986;5.696;2023-05-15T03:19:10;14.4;72.7
78455;SHT31;67751;51.986;5.696;2023-05-15T03:21:39;14.4;73.0
78455;SHT31;67751;51.986;5.696;2023-05-15T03:24:09;14.4;73.1
78455;SHT31;67751;51.986;5.696;2023-05-15T03:26:38;14.4;73.3
78455;SHT31;67751;51.986;5.696;2023-05-15T03:29:11;14.4;73.1
78455;SHT31;67751;51.986;5.696;2023-05-15T03:31:41;14.4;73.4
78455;SHT31;67751;51.986;5.696;2023-05-15T03:34:11;14.4;73.2
78455;SHT31;67751;51.986;5.696;2023-05-15T03:36:40;14.4;73.0
78455;SHT31;67751;51.986;5.696;2023-05-15T03:39:10;14.4;73.3
78455;SHT31;67751;51.986;5.696;2023-05-15T03:41:39;14.3;72.9
78455;SHT31;67751;51.986;5.696;2023-05-15T03:44:09;14.3;72.6
78455;SHT31;67751;51.986;5.696;2023-05-15T03:46:38;14.3;72.9
78455;SHT31;67751;51.986;5.696;2023-05-15T03:49:10;14.3;73.0
78455;SHT31;67751;51.986;5.696;2023-05-15T03:51:39;14.3;73.0
78455;SHT31;67751;51.986;5.696;2023-05-15T03:54:09;14.3;72.3
78455;SHT31;67751;51.986;5.696;2023-05-15T03:56:41;14.3;72.7
78455;SHT31;67751;51.986;5.696;2023-05-15T03:59:12;14.3;72.8
78455;SHT31;67751;51.986;5.696;2023-05-15T04:01:42;14.3;72.6
78455;SHT31;67751;51.986;5.696;2023-05-15T04:04:11;14.3;71.9
78455;SHT31;67751;51.986;5.696;2023-05-15T04:06:41;14.4;71.9
78455;SHT31;67751;51.986;5.696;2023-05-15T04:09:11;14.4;71.7
78455;SHT31;67751;51.986;5.696;2023-05-15T04:11:40;14.4;71.3
78455;SHT31;67751;51.986;5.696;2023-05-15T04:14:13;14.4;71.5
78455;SHT31;67751;51.986;5.696;2023-05-15T04:16:42;14.4;71.4
78455;SHT31;67751;51.986;5.696;2023-05-15T04:19:12;14.5;71.2
78455;SHT31;67751;51.986;5.696;2023-05-15T04:21:42;14.5;71.0
78455;SHT31;67751;51.986;5.696;2023-05-15T04:24:12;14.5;70.9
78455;SHT31;67751;51.986;5.696;2023-05-15T04:26:42;14.5;70.9
78455;SHT31;67751;51.986;5.696;2023-05-15T04:29:12;14.5;71.0
78455;SHT31;67751;51.986;5.696;2023-05-15T04:31:41;14.5;70.9
78455;SHT31;67751;51.986;5.696;2023-05-15T04:34:11;14.4;71.2
78455;SHT31;67751;51.986;5.696;2023-05-15T04:36:41;14.4;71.2
78455;SHT31;67751;51.986;5.696;2023-05-15T04:39:10;14.4;71.1
78455;SHT31;67751;51.986;5.696;2023-05-15T04:41:40;14.4;71.7
78455;SHT31;67751;51.986;5.696;2023-05-15T04:44:10;14.3;71.8
78455;SHT31;67751;51.986;5.696;2023-05-15T04:46:39;14.3;72.1
78455;SHT31;67751;51.986;5.696;2023-05-15T04:49:09;14.3;71.6
78455;SHT31;67751;51.986;5.696;2023-05-15T04:51:38;14.3;71.2
78455;SHT31;67751;51.986;5.696;2023-05-15T04:54:08;14.3;70.8
78455;SHT31;67751;51.986;5.696;2023-05-15T04:56:38;14.3;71.4
78455;SHT31;67751;51.986;5.696;2023-05-15T04:59:09;14.3;70.9
78455;SHT31;67751;51.986;5.696;2023-05-15T05:01:39;14.3;70.4
78455;SHT31;67751;51.986;5.696;2023-05-15T05:04:09;14.3;70.8
78455;SHT31;67751;51.986;5.696;2023-05-15T05:06:39;14.2;70.9
78455;SHT31;67751;51.986;5.696;2023-05-15T05:09:10;14.2;69.9
78455;SHT31;67751;51.986;5.696;2023-05-15T05:11:40;14.2;69.6
78455;SHT31;67751;51.986;5.696;2023-05-15T05:14:11;14.2;69.6
78455;SHT31;67751;51.986;5.696;2023-05-15T05:16:43;14.2;70.1
78455;SHT31;67751;51.986;5.696;2023-05-15T05:19:13;14.1;70.3
78455;SHT31;67751;51.986;5.696;2023-05-15T05:21:43;14.1;70.2
78455;SHT31;67751;51.986;5.696;2023-05-15T05:24:13;14.1;70.9
78455;SHT31;67751;51.986;5.696;2023-05-15T05:26:44;14.1;71.1
78455;SHT31;67751;51.986;5.696;2023-05-15T05:29:13;14.1;71.3
78455;SHT31;67751;51.986;5.696;2023-05-15T05:31:45;14.1;72.0
78455;SHT31;67751;51.986;5.696;2023-05-15T05:34:15;14.1;71.5
78455;SHT31;67751;51.986;5.696;2023-05-15T05:36:44;14.1;71.4
78455;SHT31;67751;51.986;5.696;2023-05-15T05:39:15;14.1;71.6
78455;SHT31;67751;51.986;5.696;2023-05-15T05:41:45;14.2;71.5
78455;SHT31;67751;51.986;5.696;2023-05-15T05:44:14;14.2;70.2
78455;SHT31;67751;51.986;5.696;2023-05-15T05:46:44;14.2;70.9
78455;SHT31;67751;51.986;5.696;2023-05-15T05:49:13;14.2;69.6
78455;SHT31;67751;51.986;5.696;2023-05-15T05:51:44;14.2;70.2
78455;SHT31;67751;51.986;5.696;2023-05-15T05:54:14;14.2;70.5
78455;SHT31;67751;51.986;5.696;2023-05-15T05:56:44;14.2;70.8
78455;SHT31;67751;51.986;5.696;2023-05-15T05:59:14;14.2;69.2
78455;SHT31;67751;51.986;5.696;2023-05-15T06:01:44;14.3;68.6
78455;SHT31;67751;51.986;5.696;2023-05-15T06:04:17;14.3;69.4
78455;SHT31;67751;51.986;5.696;2023-05-15T06:06:49;14.3;69.0
78455;SHT31;67751;51.986;5.696;2023-05-15T06:09:20;14.3;67.8
78455;SHT31;67751;51.986;5.696;2023-05-15T06:11:49;14.3;67.6
78455;SHT31;67751;51.986;5.696;2023-05-15T06:14:19;14.3;67.2
78455;SHT31;67751;51.986;5.696;2023-05-15T06:16:49;14.3;66.9
78455;SHT31;67751;51.986;5.696;2023-05-15T06:19:18;14.3;67.3
78455;SHT31;67751;51.986;5.696;2023-05-15T06:21:48;14.3;67.9
78455;SHT31;67751;51.986;5.696;2023-05-15T06:24:17;14.3;67.9
78455;SHT31;67751;51.986;5.696;2023-05-15T06:26:47;14.3;68.7
78455;SHT31;67751;51.986;5.696;2023-05-15T06:29:17;14.3;67.7
78455;SHT31;67751;51.986;5.696;2023-05-15T06:31:46;14.3;67.7
78455;SHT31;67751;51.986;5.696;2023-05-15T06:34:18;14.3;69.1
78455;SHT31;67751;51.986;5.696;2023-05-15T06:36:47;14.3;68.7
78455;SHT31;67751;51.986;5.696;2023-05-15T06:39:17;14.3;68.9
78455;SHT31;67751;51.986;5.696;2023-05-15T06:41:47;14.3;67.1
78455;SHT31;67751;51.986;5.696;2023-05-15T06:44:18;14.3;66.6
78455;SHT31;67751;51.986;5.696;2023-05-15T06:46:48;14.3;66.5
78455;SHT31;67751;51.986;5.696;2023-05-15T06:49:18;14.3;68.2
78455;SHT31;67751;51.986;5.696;2023-05-15T06:51:47;14.3;69.1
78455;SHT31;67751;51.986;5.696;2023-05-15T06:54:17;14.4;69.7
78455;SHT31;67751;51.986;5.696;2023-05-15T06:56:47;14.4;68.6
78455;SHT31;67751;51.986;5.696;2023-05-15T06:59:17;14.4;68.2
78455;SHT31;67751;51.986;5.696;2023-05-15T07:01:46;14.4;66.7
78455;SHT31;67751;51.986;5.696;2023-05-15T07:04:16;14.5;68.0
78455;SHT31;67751;51.986;5.696;2023-05-15T07:06:45;14.5;64.8
78455;SHT31;67751;51.986;5.696;2023-05-15T07:09:15;14.5;66.0
78455;SHT31;67751;51.986;5.696;2023-05-15T07:11:44;14.5;66.7
78455;SHT31;67751;51.986;5.696;2023-05-15T07:14:14;14.6;66.1
78455;SHT31;67751;51.986;5.696;2023-05-15T07:16:45;14.6;66.9
78455;SHT31;67751;51.986;5.696;2023-05-15T07:19:18;14.6;67.2
78455;SHT31;67751;51.986;5.696;2023-05-15T07:21:48;14.7;66.4
78455;SHT31;67751;51.986;5.696;2023-05-15T07:24:18;14.7;67.0
78455;SHT31;67751;51.986;5.696;2023-05-15T07:26:50;14.7;66.5
78455;SHT31;67751;51.986;5.696;2023-05-15T07:29:19;14.8;66.7
78455;SHT31;67751;51.986;5.696;2023-05-15T07:31:49;14.8;65.8
78455;SHT31;67751;51.986;5.696;2023-05-15T07:34:18;14.8;66.8
78455;SHT31;67751;51.986;5.696;2023-05-15T07:36:48;14.9;66.5
78455;SHT31;67751;51.986;5.696;2023-05-15T07:39:18;14.9;67.1
78455;SHT31;67751;51.986;5.696;2023-05-15T07:41:47;14.9;67.4
78455;SHT31;67751;51.986;5.696;2023-05-15T07:44:17;15.0;67.8
78455;SHT31;67751;51.986;5.696;2023-05-15T07:46:46;15.0;67.7
78455;SHT31;67751;51.986;5.696;2023-05-15T07:49:16;15.1;66.6
78455;SHT31;67751;51.986;5.696;2023-05-15T07:51:45;15.1;67.7
78455;SHT31;67751;51.986;5.696;2023-05-15T07:54:15;15.2;66.5
78455;SHT31;67751;51.986;5.696;2023-05-15T07:56:44;15.2;66.1
78455;SHT31;67751;51.986;5.696;2023-05-15T07:59:14;15.2;66.1
78455;SHT31;67751;51.986;5.696;2023-05-15T08:01:44;15.2;67.2
78455;SHT31;67751;51.986;5.696;2023-05-15T08:04:13;15.3;66.5
78455;SHT31;67751;51.986;5.696;2023-05-15T08:06:43;15.3;65.7
78455;SHT31;67751;51.986;5.696;2023-05-15T08:09:12;15.4;65.0
78455;SHT31;67751;51.986;5.696;2023-05-15T08:11:42;15.4;66.1
78455;SHT31;67751;51.986;5.696;2023-05-15T08:14:12;15.4;66.8
78455;SHT31;67751;51.986;5.696;2023-05-15T08:16:41;15.5;66.0
78455;SHT31;67751;51.986;5.696;2023-05-15T08:19:11;15.5;66.3
78455;SHT31;67751;51.986;5.696;2023-05-15T08:21:42;15.6;66.9
78455;SHT31;67751;51.986;5.696;2023-05-15T08:24:14;15.6;65.6
78455;SHT31;67751;51.986;5.696;2023-05-15T08:26:45;15.7;65.9
78455;SHT31;67751;51.986;5.696;2023-05-15T08:29:15;15.7;66.2
78455;SHT31;67751;51.986;5.696;2023-05-15T08:31:45;15.8;65.3
78455;SHT31;67751;51.986;5.696;2023-05-15T08:34:14;15.9;63.7
78455;SHT31;67751;51.986;5.696;2023-05-15T08:36:46;15.9;64.1
78455;SHT31;67751;51.986;5.696;2023-05-15T08:39:17;15.9;65.7
78455;SHT31;67751;51.986;5.696;2023-05-15T08:41:52;16.0;64.6
78455;SHT31;67751;51.986;5.696;2023-05-15T08:44:24;16.0;65.1
78455;SHT31;67751;51.986;5.696;2023-05-15T08:46:54;16.1;64.4
78455;SHT31;67751;51.986;5.696;2023-05-15T08:49:32;16.1;62.9
78455;SHT31;67751;51.986;5.696;2023-05-15T08:52:04;16.2;64.3
78455;SHT31;67751;51.986;5.696;2023-05-15T08:54:34;16.2;63.0
78455;SHT31;67751;51.986;5.696;2023-05-15T08:57:05;16.3;62.8
78455;SHT31;67751;51.986;5.696;2023-05-15T08:59:36;16.3;64.0
78455;SHT31;67751;51.986;5.696;2023-05-15T09:02:06;16.3;62.7
78455;SHT31;67751;51.986;5.696;2023-05-15T09:04:36;16.4;61.6
78455;SHT31;67751;51.986;5.696;2023-05-15T09:07:06;16.4;61.7
78455;SHT31;67751;51.986;5.696;2023-05-15T09:09:38;16.5;61.8
78455;SHT31;67751;51.986;5.696;2023-05-15T09:12:13;16.5;61.2
78455;SHT31;67751;51.986;5.696;2023-05-15T09:14:43;16.5;62.2
78455;SHT31;67751;51.986;5.696;2023-05-15T09:17:13;16.5;62.7
78455;SHT31;67751;51.986;5.696;2023-05-15T09:19:43;16.5;61.5
78455;SHT31;67751;51.986;5.696;2023-05-15T09:22:17;16.6;62.3
78455;SHT31;67751;51.986;5.696;2023-05-15T09:24:50;16.6;62.6
78455;SHT31;67751;51.986;5.696;2023-05-15T09:27:21;16.6;62.9
78455;SHT31;67751;51.986;5.696;2023-05-15T09:29:53;16.7;61.1
78455;SHT31;67751;51.986;5.696;2023-05-15T09:32:25;16.7;61.2
78455;SHT31;67751;51.986;5.696;2023-05-15T09:34:56;16.8;61.0
78455;SHT31;67751;51.986;5.696;2023-05-15T09:37:31;16.8;59.2
78455;SHT31;67751;51.986;5.696;2023-05-15T09:40:10;16.9;58.5
78455;SHT31;67751;51.986;5.696;2023-05-15T09:42:40;16.9;60.2
78455;SHT31;67751;51.986;5.696;2023-05-15T09:45:15;16.9;59.5
78455;SHT31;67751;51.986;5.696;2023-05-15T09:47:47;17.0;58.6
78455;SHT31;67751;51.986;5.696;2023-05-15T09:50:22;17.0;57.9
78455;SHT31;67751;51.986;5.696;2023-05-15T09:52:52;17.0;59.8
78455;SHT31;67751;51.986;5.696;2023-05-15T09:55:24;17.0;61.1
78455;SHT31;67751;51.986;5.696;2023-05-15T09:58:16;17.1;59.7
78455;SHT31;67751;51.986;5.696;2023-05-15T10:00:46;17.1;60.6
78455;SHT31;67751;51.986;5.696;2023-05-15T10:03:17;17.1;62.0
78455;SHT31;67751;51.986;5.696;2023-05-15T10:05:48;17.1;62.2
78455;SHT31;67751;51.986;5.696;2023-05-15T10:08:25;17.2;63.1
78455;SHT31;67751;51.986;5.696;2023-05-15T10:10:58;17.2;63.3
78455;SHT31;67751;51.986;5.696;2023-05-15T10:13:30;17.2;61.8
78455;SHT31;67751;51.986;5.696;2023-05-15T10:16:02;17.3;62.7
78455;SHT31;67751;51.986;5.696;2023-05-15T10:18:32;17.3;63.4
78455;SHT31;67751;51.986;5.696;2023-05-15T10:21:04;17.3;63.4
78455;SHT31;67751;51.986;5.696;2023-05-15T10:23:36;17.3;63.0
78455;SHT31;67751;51.986;5.696;2023-05-15T10:26:12;17.3;60.3
78455;SHT31;67751;51.986;5.696;2023-05-15T10:28:45;17.3;60.7
78455;SHT31;67751;51.986;5.696;2023-05-15T10:31:18;17.3;61.5
78455;SHT31;67751;51.986;5.696;2023-05-15T10:33:50;17.3;60.8
78455;SHT31;67751;51.986;5.696;2023-05-15T10:36:21;17.3;61.1
78455;SHT31;67751;51.986;5.696;2023-05-15T10:38:51;17.3;61.2
78455;SHT31;67751;51.986;5.696;2023-05-15T10:41:22;17.3;60.6
78455;SHT31;67751;51.986;5.696;2023-05-15T10:43:53;17.3;59.9
78455;SHT31;67751;51.986;5.696;2023-05-15T10:46:24;17.3;59.1
78455;SHT31;67751;51.986;5.696;2023-05-15T10:48:56;17.3;58.0
78455;SHT31;67751;51.986;5.696;2023-05-15T10:51:28;17.3;57.4
78455;SHT31;67751;51.986;5.696;2023-05-15T10:54:00;17.3;56.9
78455;SHT31;67751;51.986;5.696;2023-05-15T10:56:32;17.3;57.3
78455;SHT31;67751;51.986;5.696;2023-05-15T10:59:07;17.3;58.4
78455;SHT31;67751;51.986;5.696;2023-05-15T11:01:38;17.3;57.9
78455;SHT31;67751;51.986;5.696;2023-05-15T11:04:10;17.4;58.9
78455;SHT31;67751;51.986;5.696;2023-05-15T11:06:42;17.4;58.2
78455;SHT31;67751;51.986;5.696;2023-05-15T11:09:33;17.4;58.7
78455;SHT31;67751;51.986;5.696;2023-05-15T11:12:04;17.4;60.5
78455;SHT31;67751;51.986;5.696;2023-05-15T11:14:36;17.4;60.6
78455;SHT31;67751;51.986;5.696;2023-05-15T11:17:08;17.5;60.4
78455;SHT31;67751;51.986;5.696;2023-05-15T11:19:57;17.5;60.9
78455;SHT31;67751;51.986;5.696;2023-05-15T11:22:30;17.5;60.5
78455;SHT31;67751;51.986;5.696;2023-05-15T11:25:04;17.5;62.5
78455;SHT31;67751;51.986;5.696;2023-05-15T11:27:40;17.5;61.7
78455;SHT31;67751;51.986;5.696;2023-05-15T11:30:15;17.5;61.5
78455;SHT31;67751;51.986;5.696;2023-05-15T11:32:54;17.4;62.6
78455;SHT31;67751;51.986;5.696;2023-05-15T11:35:26;17.4;62.2
78455;SHT31;67751;51.986;5.696;2023-05-15T11:37:57;17.4;62.5
78455;SHT31;67751;51.986;5.696;2023-05-15T11:40:29;17.4;63.1
78455;SHT31;67751;51.986;5.696;2023-05-15T11:43:01;17.4;62.6
78455;SHT31;67751;51.986;5.696;2023-05-15T11:45:33;17.3;62.3
78455;SHT31;67751;51.986;5.696;2023-05-15T11:48:05;17.3;62.9
78455;SHT31;67751;51.986;5.696;2023-05-15T11:50:35;17.3;63.2
78455;SHT31;67751;51.986;5.696;2023-05-15T11:53:06;17.3;61.5
78455;SHT31;67751;51.986;5.696;2023-05-15T11:55:38;17.3;62.5
78455;SHT31;67751;51.986;5.696;2023-05-15T11:58:12;17.2;61.8
78455;SHT31;67751;51.986;5.696;2023-05-15T12:00:44;17.2;61.1
78455;SHT31;67751;51.986;5.696;2023-05-15T12:03:22;17.2;62.3
78455;SHT31;67751;51.986;5.696;2023-05-15T12:05:52;17.1;62.2
78455;SHT31;67751;51.986;5.696;2023-05-15T12:08:22;17.1;62.2
78455;SHT31;67751;51.986;5.696;2023-05-15T12:10:52;17.1;62.8
78455;SHT31;67751;51.986;5.696;2023-05-15T12:13:22;17.1;62.5
78455;SHT31;67751;51.986;5.696;2023-05-15T12:15:54;17.0;61.9
78455;SHT31;67751;51.986;5.696;2023-05-15T12:18:24;17.0;63.1
78455;SHT31;67751;51.986;5.696;2023-05-15T12:20:54;17.0;62.8
78455;SHT31;67751;51.986;5.696;2023-05-15T12:23:25;17.0;62.4
78455;SHT31;67751;51.986;5.696;2023-05-15T12:25:58;17.0;63.0
78455;SHT31;67751;51.986;5.696;2023-05-15T12:28:33;17.0;63.8
78455;SHT31;67751;51.986;5.696;2023-05-15T12:31:05;16.9;64.2
78455;SHT31;67751;51.986;5.696;2023-05-15T12:33:35;16.9;63.4
78455;SHT31;67751;51.986;5.696;2023-05-15T12:36:07;16.9;63.8
78455;SHT31;67751;51.986;5.696;2023-05-15T12:38:38;16.9;64.2
78455;SHT31;67751;51.986;5.696;2023-05-15T12:41:11;16.9;65.2
78455;SHT31;67751;51.986;5.696;2023-05-15T12:43:41;16.9;64.2
78455;SHT31;67751;51.986;5.696;2023-05-15T12:46:12;16.9;63.4
78455;SHT31;67751;51.986;5.696;2023-05-15T12:48:42;16.9;62.2
78455;SHT31;67751;51.986;5.696;2023-05-15T12:51:15;16.9;62.4
78455;SHT31;67751;51.986;5.696;2023-05-15T12:53:47;16.9;64.3
78455;SHT31;67751;51.986;5.696;2023-05-15T12:56:17;16.9;63.9
78455;SHT31;67751;51.986;5.696;2023-05-15T12:58:49;16.9;64.1
78455;SHT31;67751;51.986;5.696;2023-05-15T13:01:21;16.9;63.3
78455;SHT31;67751;51.986;5.696;2023-05-15T13:03:51;16.9;64.0
78455;SHT31;67751;51.986;5.696;2023-05-15T13:06:22;16.9;63.8
78455;SHT31;67751;51.986;5.696;2023-05-15T13:08:55;16.9;63.5
78455;SHT31;67751;51.986;5.696;2023-05-15T13:11:30;17.0;63.0
78455;SHT31;67751;51.986;5.696;2023-05-15T13:14:00;17.0;63.8
78455;SHT31;67751;51.986;5.696;2023-05-15T13:16:35;17.0;64.5
78455;SHT31;67751;51.986;5.696;2023-05-15T13:19:05;17.1;64.3
78455;SHT31;67751;51.986;5.696;2023-05-15T13:21:36;17.1;62.8
78455;SHT31;67751;51.986;5.696;2023-05-15T13:24:06;17.1;64.3
78455;SHT31;67751;51.986;5.696;2023-05-15T13:26:37;17.2;64.2
78455;SHT31;67751;51.986;5.696;2023-05-15T13:29:06;17.3;62.6
78455;SHT31;67751;51.986;5.696;2023-05-15T13:31:36;17.3;62.5
78455;SHT31;67751;51.986;5.696;2023-05-15T13:34:05;17.4;62.0
78455;SHT31;67751;51.986;5.696;2023-05-15T13:36:35;17.5;62.8
78455;SHT31;67751;51.986;5.696;2023-05-15T13:39:07;17.5;61.8
78455;SHT31;67751;51.986;5.696;2023-05-15T13:41:37;17.6;61.8
78455;SHT31;67751;51.986;5.696;2023-05-15T13:44:07;17.6;60.3
78455;SHT31;67751;51.986;5.696;2023-05-15T13:46:37;17.7;62.0
78455;SHT31;67751;51.986;5.696;2023-05-15T13:49:06;17.7;60.4
78455;SHT31;67751;51.986;5.696;2023-05-15T13:51:37;17.8;61.1
78455;SHT31;67751;51.986;5.696;2023-05-15T13:54:07;17.8;59.5
78455;SHT31;67751;51.986;5.696;2023-05-15T13:56:37;17.8;60.6
78455;SHT31;67751;51.986;5.696;2023-05-15T13:59:06;17.8;60.4
78455;SHT31;67751;51.986;5.696;2023-05-15T14:01:36;17.8;60.0
78455;SHT31;67751;51.986;5.696;2023-05-15T14:04:06;17.9;60.7
78455;SHT31;67751;51.986;5.696;2023-05-15T14:06:35;17.9;58.2
78455;SHT31;67751;51.986;5.696;2023-05-15T14:09:05;17.9;59.6
78455;SHT31;67751;51.986;5.696;2023-05-15T14:11:35;17.9;58.7
78455;SHT31;67751;51.986;5.696;2023-05-15T14:14:05;17.9;59.5
78455;SHT31;67751;51.986;5.696;2023-05-15T14:16:35;18.0;58.6
78455;SHT31;67751;51.986;5.696;2023-05-15T14:19:06;17.9;57.9
78455;SHT31;67751;51.986;5.696;2023-05-15T14:21:39;17.9;59.2
78455;SHT31;67751;51.986;5.696;2023-05-15T14:24:09;17.9;60.8
78455;SHT31;67751;51.986;5.696;2023-05-15T14:26:39;17.9;62.2
78455;SHT31;67751;51.986;5.696;2023-05-15T14:29:10;17.9;62.3
78455;SHT31;67751;51.986;5.696;2023-05-15T14:31:41;17.9;62.6
78455;SHT31;67751;51.986;5.696;2023-05-15T14:34:11;17.9;63.2
78455;SHT31;67751;51.986;5.696;2023-05-15T14:36:40;17.8;62.3
78455;SHT31;67751;51.986;5.696;2023-05-15T14:39:12;17.8;62.7
78455;SHT31;67751;51.986;5.696;2023-05-15T14:41:43;17.8;62.6
78455;SHT31;67751;51.986;5.696;2023-05-15T14:44:13;17.7;61.9
78455;SHT31;67751;51.986;5.696;2023-05-15T14:46:43;17.7;62.9
78455;SHT31;67751;51.986;5.696;2023-05-15T14:49:12;17.7;62.8
78455;SHT31;67751;51.986;5.696;2023-05-15T14:51:42;17.7;62.4
78455;SHT31;67751;51.986;5.696;2023-05-15T14:54:12;17.6;62.3
78455;SHT31;67751;51.986;5.696;2023-05-15T14:56:41;17.6;62.4
78455;SHT31;67751;51.986;5.696;2023-05-15T14:59:11;17.5;62.6
78455;SHT31;67751;51.986;5.696;2023-05-15T15:01:40;17.5;63.5
78455;SHT31;67751;51.986;5.696;2023-05-15T15:04:10;17.4;63.5
78455;SHT31;67751;51.986;5.696;2023-05-15T15:06:40;17.4;62.4
78455;SHT31;67751;51.986;5.696;2023-05-15T15:09:10;17.4;63.1
78455;SHT31;67751;51.986;5.696;2023-05-15T15:11:41;17.4;63.0
78455;SHT31;67751;51.986;5.696;2023-05-15T15:14:11;17.3;64.2
78455;SHT31;67751;51.986;5.696;2023-05-15T15:16:41;17.3;63.3
78455;SHT31;67751;51.986;5.696;2023-05-15T15:19:12;17.3;63.5
78455;SHT31;67751;51.986;5.696;2023-05-15T15:21:42;17.3;62.6
78455;SHT31;67751;51.986;5.696;2023-05-15T15:24:12;17.3;62.5
78455;SHT31;67751;51.986;5.696;2023-05-15T15:26:41;17.2;62.4
78455;SHT31;67751;51.986;5.696;2023-05-15T15:29:11;17.2;61.6
78455;SHT31;67751;51.986;5.696;2023-05-15T15:31:42;17.2;61.3
78455;SHT31;67751;51.986;5.696;2023-05-15T15:34:12;17.1;61.5
78455;SHT31;67751;51.986;5.696;2023-05-15T15:36:42;17.1;62.3
78455;SHT31;67751;51.986;5.696;2023-05-15T15:39:11;17.0;62.2
78455;SHT31;67751;51.986;5.696;2023-05-15T15:41:43;17.0;62.7
78455;SHT31;67751;51.986;5.696;2023-05-15T15:44:12;16.9;61.9
78455;SHT31;67751;51.986;5.696;2023-05-15T15:46:42;16.9;63.2
78455;SHT31;67751;51.986;5.696;2023-05-15T15:49:12;16.9;62.1
78455;SHT31;67751;51.986;5.696;2023-05-15T15:51:41;16.8;61.8
78455;SHT31;67751;51.986;5.696;2023-05-15T15:54:11;16.8;63.0
78455;SHT31;67751;51.986;5.696;2023-05-15T15:56:40;16.8;62.8
78455;SHT31;67751;51.986;5.696;2023-05-15T15:59:10;16.8;63.7
78455;SHT31;67751;51.986;5.696;2023-05-15T16:01:40;16.8;62.9
78455;SHT31;67751;51.986;5.696;2023-05-15T16:04:09;16.8;63.0
78455;SHT31;67751;51.986;5.696;2023-05-15T16:06:39;16.8;63.5
78455;SHT31;67751;51.986;5.696;2023-05-15T16:09:08;16.8;63.5
78455;SHT31;67751;51.986;5.696;2023-05-15T16:11:38;16.7;63.4
78455;SHT31;67751;51.986;5.696;2023-05-15T16:14:08;16.7;62.5
78455;SHT31;67751;51.986;5.696;2023-05-15T16:16:38;16.7;63.7
78455;SHT31;67751;51.986;5.696;2023-05-15T16:19:07;16.7;63.0
78455;SHT31;67751;51.986;5.696;2023-05-15T16:21:37;16.7;62.7
78455;SHT31;67751;51.986;5.696;2023-05-15T16:24:07;16.6;63.7
78455;SHT31;67751;51.986;5.696;2023-05-15T16:26:37;16.6;63.2
78455;SHT31;67751;51.986;5.696;2023-05-15T16:29:09;16.6;64.2